Time;durP1;ratioP1;P1;durP2;ratioP2;P2;SDS_P1;SDS_P2;PMS_P1;PMS_P2;Temp;Humidity;BMP_temperature;BMP_pressure;BME280_temperature;BME280_humidity;BME280_pressure;Samples;Min_cycle;Max_cycle;Signal;HPM_P1;HPM_P2
2023/07/19 00:02:09;;;;;;;4.80;2.10;;;;;;;;;;4926755;29;20062;-85
2023/07/19 00:04:34;;;;;;;6.43;2.10;;;;;;;;;;4941733;29;20101;-85
2023/07/19 00:07:00;;;;;;;5.07;1.88;;;;;;;;;;4924474;29;20475;-84
2023/07/19 00:09:25;;;;;;;5.07;1.85;;;;;;;;;;4943427;29;20443;-84
2023/07/19 00:11:51;;;;;;;4.50;1.92;;;;;;;;;;4945370;29;20415;-83
2023/07/19 00:14:17;;;;;;;4.72;1.48;;;;;;;;;;4945901;29;20053;-84
2023/07/19 00:16:42;;;;;;;7.30;2.08;;;;;;;;;;4944493;29;20583;-84
2023/07/19 00:19:08;;;;;;;3.85;1.73;;;;;;;;;;4961177;28;20035;-84
2023/07/19 00:21:33;;;;;;;5.38;1.88;;;;;;;;;;4933246;29;20098;-86
2023/07/19 00:23:59;;;;;;;3.97;1.50;;;;;;;;;;4919307;29;20035;-85
2023/07/19 00:26:24;;;;;;;7.78;2.00;;;;;;;;;;4961006;29;20023;-85
2023/07/19 00:28:50;;;;;;;5.70;1.77;;;;;;;;;;4939604;29;20033;-83
2023/07/19 00:31:15;;;;;;;5.55;1.88;;;;;;;;;;4922434;29;20139;-84
2023/07/19 00:33:41;;;;;;;5.60;2.08;;;;;;;;;;4954943;29;20028;-85
2023/07/19 00:36:06;;;;;;;5.78;1.80;;;;;;;;;;4955279;29;20043;-84
2023/07/19 00:38:32;;;;;;;4.85;1.98;;;;;;;;;;4958104;28;20028;-86
2023/07/19 00:40:57;;;;;;;5.82;1.80;;;;;;;;;;4922771;29;20039;-85
2023/07/19 00:43:23;;;;;;;3.60;1.50;;;;;;;;;;4938292;29;20035;-84
2023/07/19 00:45:52;;;;;;;6.65;2.38;;;;;;;;;;4960506;29;20035;-85
2023/07/19 00:48:18;;;;;;;5.05;1.90;;;;;;;;;;4938331;28;20082;-85
2023/07/19 00:50:44;;;;;;;10.48;2.30;;;;;;;;;;4937592;29;20494;-85
2023/07/19 00:53:11;;;;;;;6.40;2.15;;;;;;;;;;4937890;29;20050;-85
2023/07/19 00:55:37;;;;;;;5.35;1.73;;;;;;;;;;4937984;29;20033;-85
2023/07/19 00:58:03;;;;;;;6.18;2.53;;;;;;;;;;4955655;28;20058;-86
2023/07/19 01:00:29;;;;;;;4.65;1.75;;;;;;;;;;4925122;29;20767;-86
2023/07/19 01:02:55;;;;;;;6.78;2.72;;;;;;;;;;4925363;29;20071;-84
2023/07/19 01:05:21;;;;;;;6.68;2.00;;;;;;;;;;4926370;29;20117;-84
2023/07/19 01:07:47;;;;;;;4.78;1.65;;;;;;;;;;4927809;29;20043;-85
2023/07/19 01:10:13;;;;;;;4.28;1.60;;;;;;;;;;4942053;29;20517;-85
2023/07/19 01:12:38;;;;;;;4.30;1.90;;;;;;;;;;4925708;29;20063;-85
2023/07/19 01:15:08;;;;;;;5.82;1.88;;;;;;;;;;4925198;29;20035;-84
2023/07/19 01:17:35;;;;;;;4.95;2.05;;;;;;;;;;4924817;29;20035;-85
2023/07/19 01:20:01;;;;;;;4.20;1.70;;;;;;;;;;4940467;29;20039;-84
2023/07/19 01:22:28;;;;;;;9.43;1.60;;;;;;;;;;4957667;29;20590;-85
2023/07/19 01:24:53;;;;;;;5.85;2.00;;;;;;;;;;4928776;29;20039;-85
2023/07/19 01:27:21;;;;;;;5.15;2.38;;;;;;;;;;4932240;28;20058;-84
2023/07/19 01:29:46;;;;;;;4.38;1.73;;;;;;;;;;4963266;28;20023;-84
2023/07/19 01:32:12;;;;;;;3.72;1.50;;;;;;;;;;4980583;28;20058;-85
2023/07/19 01:34:37;;;;;;;7.93;1.77;;;;;;;;;;4963506;28;20042;-84
2023/07/19 01:37:03;;;;;;;3.58;1.67;;;;;;;;;;4963202;28;20047;-85
2023/07/19 01:39:29;;;;;;;6.57;1.90;;;;;;;;;;4961823;28;20066;-85
2023/07/19 01:41:54;;;;;;;5.65;1.75;;;;;;;;;;4946102;29;20035;-85
2023/07/19 01:44:20;;;;;;;5.03;2.10;;;;;;;;;;4945510;29;20027;-85
2023/07/19 01:46:45;;;;;;;5.93;2.53;;;;;;;;;;4942832;29;20039;-82
2023/07/19 01:49:11;;;;;;;5.68;2.00;;;;;;;;;;4944447;29;20490;-84
2023/07/19 01:51:36;;;;;;;6.32;1.80;;;;;;;;;;4959757;29;20138;-85
2023/07/19 01:54:02;;;;;;;7.10;1.83;;;;;;;;;;4961072;29;20034;-84
2023/07/19 01:56:27;;;;;;;4.95;1.98;;;;;;;;;;4910533;29;20486;-83
2023/07/19 01:58:53;;;;;;;3.92;1.70;;;;;;;;;;4936244;29;20390;-84
2023/07/19 02:01:19;;;;;;;10.88;1.98;;;;;;;;;;4942168;29;20023;-85
2023/07/19 02:03:44;;;;;;;6.20;2.25;;;;;;;;;;4958450;29;20046;-84
2023/07/19 02:06:12;;;;;;;6.68;2.03;;;;;;;;;;4943174;29;20128;-82
2023/07/19 02:08:37;;;;;;;10.05;2.33;;;;;;;;;;4940493;28;20089;-84
2023/07/19 02:11:03;;;;;;;9.68;2.25;;;;;;;;;;4924264;29;20034;-85
2023/07/19 02:13:29;;;;;;;6.05;2.10;;;;;;;;;;4924280;29;20039;-86
2023/07/19 02:15:54;;;;;;;6.72;2.17;;;;;;;;;;4923932;29;20406;-84
2023/07/19 02:18:21;;;;;;;4.70;1.95;;;;;;;;;;4939565;28;20550;-84
2023/07/19 02:20:47;;;;;;;6.18;1.98;;;;;;;;;;4923603;29;20035;-83
2023/07/19 02:23:13;;;;;;;5.20;1.90;;;;;;;;;;4923762;29;20027;-85
2023/07/19 02:25:39;;;;;;;6.60;2.03;;;;;;;;;;4939404;29;20069;-86
2023/07/19 02:28:05;;;;;;;4.25;2.03;;;;;;;;;;4939393;29;20039;-84
2023/07/19 02:30:30;;;;;;;7.85;2.00;;;;;;;;;;4938899;29;20031;-85
2023/07/19 02:32:56;;;;;;;4.47;1.90;;;;;;;;;;4939175;29;20038;-84
2023/07/19 02:35:23;;;;;;;6.32;2.40;;;;;;;;;;4938898;29;20053;-85
2023/07/19 02:37:48;;;;;;;5.20;2.08;;;;;;;;;;4923145;29;20565;-85
2023/07/19 02:40:14;;;;;;;5.72;2.10;;;;;;;;;;4923345;29;20281;-85
2023/07/19 02:42:40;;;;;;;5.78;1.75;;;;;;;;;;4923500;29;20118;-86
2023/07/19 02:45:06;;;;;;;10.38;4.00;;;;;;;;;;4956257;29;20069;-85
2023/07/19 02:47:32;;;;;;;8.02;3.40;;;;;;;;;;4923720;29;20051;-85
2023/07/19 02:49:57;;;;;;;7.93;2.13;;;;;;;;;;4923812;29;20036;-86
2023/07/19 02:52:23;;;;;;;6.97;1.98;;;;;;;;;;4923314;29;20023;-85
2023/07/19 02:54:48;;;;;;;5.43;2.42;;;;;;;;;;4923611;29;20063;-86
2023/07/19 02:57:14;;;;;;;7.78;2.25;;;;;;;;;;4939719;29;20024;-84
2023/07/19 02:59:39;;;;;;;6.53;2.35;;;;;;;;;;4907745;29;20039;-85
2023/07/19 03:02:05;;;;;;;4.95;2.30;;;;;;;;;;4939796;29;20027;-86
2023/07/19 03:04:31;;;;;;;9.38;2.50;;;;;;;;;;4923883;29;20045;-84
2023/07/19 03:06:57;;;;;;;5.50;2.00;;;;;;;;;;4956978;29;20035;-85
2023/07/19 03:09:23;;;;;;;12.80;2.40;;;;;;;;;;4939814;29;20035;-85
2023/07/19 03:11:48;;;;;;;5.88;2.50;;;;;;;;;;4941766;29;20215;-82
2023/07/19 03:14:14;;;;;;;6.20;2.30;;;;;;;;;;4939952;29;20032;-85
2023/07/19 03:16:40;;;;;;;7.30;2.40;;;;;;;;;;4939829;29;20078;-85
2023/07/19 03:19:14;;;;;;;6.20;2.35;;;;;;;;;;4907928;29;20042;-84
2023/07/19 03:21:39;;;;;;;7.55;2.35;;;;;;;;;;4907542;29;20046;-87
2023/07/19 03:24:05;;;;;;;7.43;2.22;;;;;;;;;;4939717;29;20063;-85
2023/07/19 03:26:31;;;;;;;4.13;2.05;;;;;;;;;;4942243;29;20034;-85
2023/07/19 03:28:57;;;;;;;7.43;2.38;;;;;;;;;;4936071;23;20039;-76
2023/07/19 03:31:23;;;;;;;5.85;2.17;;;;;;;;;;4937036;29;20372;-77
2023/07/19 03:33:49;;;;;;;8.65;2.33;;;;;;;;;;4954831;29;20502;-76
2023/07/19 03:36:14;;;;;;;5.53;1.95;;;;;;;;;;4938065;29;20058;-76
2023/07/19 03:38:40;;;;;;;9.38;2.53;;;;;;;;;;4954901;29;20039;-77
2023/07/19 03:41:07;;;;;;;7.32;2.30;;;;;;;;;;4918625;29;20424;-76
2023/07/19 03:43:33;;;;;;;4.65;2.20;;;;;;;;;;4935974;29;20066;-77
2023/07/19 03:45:59;;;;;;;6.78;2.25;;;;;;;;;;4919202;29;20456;-77
2023/07/19 03:48:25;;;;;;;8.32;2.55;;;;;;;;;;4903780;29;20040;-77
2023/07/19 03:50:59;;;;;;;9.18;2.40;;;;;;;;;;4904320;29;20031;-75
2023/07/19 03:53:26;;;;;;;5.68;2.58;;;;;;;;;;4904485;29;20032;-76
2023/07/19 03:55:53;;;;;;;6.78;2.20;;;;;;;;;;4894137;29;20063;-76
2023/07/19 03:58:19;;;;;;;12.45;2.50;;;;;;;;;;4897083;29;20059;-76
2023/07/19 04:00:44;;;;;;;9.75;2.65;;;;;;;;;;4917936;29;20051;-76
2023/07/19 04:03:10;;;;;;;4.60;2.17;;;;;;;;;;4915194;29;20043;-75
2023/07/19 04:05:36;;;;;;;4.40;2.05;;;;;;;;;;4916549;29;20042;-76
2023/07/19 04:08:01;;;;;;;4.50;2.33;;;;;;;;;;4931507;29;20043;-77
2023/07/19 04:10:29;;;;;;;10.00;2.50;;;;;;;;;;4892648;29;20043;-76
2023/07/19 04:12:55;;;;;;;4.97;2.40;;;;;;;;;;4904840;29;20468;-76
2023/07/19 04:15:21;;;;;;;6.78;2.25;;;;;;;;;;4919075;29;20035;-77
2023/07/19 04:17:46;;;;;;;7.63;2.95;;;;;;;;;;4935811;29;20032;-76
2023/07/19 04:20:12;;;;;;;5.22;1.98;;;;;;;;;;4918372;29;20036;-78
2023/07/19 04:22:38;;;;;;;6.18;2.35;;;;;;;;;;4918698;29;20043;-77
2023/07/19 04:25:04;;;;;;;5.22;2.58;;;;;;;;;;4903278;29;20039;-76
2023/07/19 04:27:31;;;;;;;6.75;2.03;;;;;;;;;;4919320;29;20039;-77
2023/07/19 04:29:57;;;;;;;12.55;5.10;;;;;;;;;;4919043;29;20028;-77
2023/07/19 04:32:22;;;;;;;9.52;2.90;;;;;;;;;;4903439;29;20395;-77
2023/07/19 04:34:52;;;;;;;6.20;2.28;;;;;;;;;;4907554;29;20075;-76
2023/07/19 04:37:18;;;;;;;7.82;2.40;;;;;;;;;;4939065;29;20395;-76
2023/07/19 04:39:43;;;;;;;10.25;2.55;;;;;;;;;;4921559;29;20118;-77
2023/07/19 04:42:09;;;;;;;5.07;2.20;;;;;;;;;;4921673;29;20032;-76
2023/07/19 04:44:35;;;;;;;5.38;2.05;;;;;;;;;;4921943;29;20024;-76
2023/07/19 04:47:00;;;;;;;5.38;1.98;;;;;;;;;;4921464;29;20031;-78
2023/07/19 04:49:26;;;;;;;9.27;2.10;;;;;;;;;;4921120;29;20020;-76
2023/07/19 04:51:52;;;;;;;6.57;2.17;;;;;;;;;;4938218;29;20031;-76
2023/07/19 04:54:17;;;;;;;7.38;2.47;;;;;;;;;;4905716;29;20031;-76
2023/07/19 04:56:43;;;;;;;8.65;2.10;;;;;;;;;;4905694;29;20080;-76
2023/07/19 04:59:09;;;;;;;11.77;2.33;;;;;;;;;;4921332;29;20487;-74
2023/07/19 05:01:34;;;;;;;7.78;2.58;;;;;;;;;;4938591;29;20043;-77
2023/07/19 05:04:00;;;;;;;10.98;2.47;;;;;;;;;;4905484;29;20111;-76
2023/07/19 05:06:25;;;;;;;7.93;2.30;;;;;;;;;;4920915;29;20046;-74
2023/07/19 05:08:51;;;;;;;8.32;2.13;;;;;;;;;;4920898;29;20046;-76
2023/07/19 05:11:19;;;;;;;7.10;2.22;;;;;;;;;;4920428;29;20395;-76
2023/07/19 05:13:45;;;;;;;6.35;1.90;;;;;;;;;;4920896;29;20020;-77
2023/07/19 05:16:11;;;;;;;8.93;3.75;;;;;;;;;;4905267;29;20043;-76
2023/07/19 05:18:36;;;;;;;12.10;2.97;;;;;;;;;;4920674;29;20043;-76
2023/07/19 05:21:03;;;;;;;13.75;2.47;;;;;;;;;;4904790;29;20063;-76
2023/07/19 05:23:28;;;;;;;7.53;2.60;;;;;;;;;;4920734;29;20070;-76
2023/07/19 05:25:55;;;;;;;14.43;3.10;;;;;;;;;;4920482;29;20028;-76
2023/07/19 05:28:20;;;;;;;10.75;2.45;;;;;;;;;;4937908;29;20523;-77
2023/07/19 05:30:46;;;;;;;6.80;2.22;;;;;;;;;;4937407;29;20130;-78
2023/07/19 05:33:11;;;;;;;8.02;2.60;;;;;;;;;;4937428;29;20036;-77
2023/07/19 05:35:37;;;;;;;7.78;2.38;;;;;;;;;;4921100;29;20044;-76
2023/07/19 05:38:03;;;;;;;7.55;3.13;;;;;;;;;;4937338;29;20031;-76
2023/07/19 05:40:30;;;;;;;12.32;2.50;;;;;;;;;;4937440;29;20047;-77
2023/07/19 05:42:56;;;;;;;10.68;2.60;;;;;;;;;;4920737;29;20035;-77
2023/07/19 05:45:21;;;;;;;5.38;2.10;;;;;;;;;;4937323;29;20484;-77
2023/07/19 05:47:47;;;;;;;6.75;1.95;;;;;;;;;;4937173;29;20098;-77
2023/07/19 05:50:12;;;;;;;7.00;2.10;;;;;;;;;;4936984;29;20035;-75
2023/07/19 05:52:39;;;;;;;12.75;2.17;;;;;;;;;;4936954;29;20115;-76
2023/07/19 05:55:05;;;;;;;7.60;2.00;;;;;;;;;;4936854;29;20038;-75
2023/07/19 05:57:31;;;;;;;10.18;2.22;;;;;;;;;;4937416;29;20036;-76
2023/07/19 06:00:01;;;;;;;4.88;2.10;;;;;;;;;;4919956;29;20451;-77
2023/07/19 06:02:27;;;;;;;7.90;2.58;;;;;;;;;;4920012;29;20042;-77
2023/07/19 06:04:52;;;;;;;6.90;2.40;;;;;;;;;;4919598;29;20406;-73
2023/07/19 06:07:18;;;;;;;7.03;2.38;;;;;;;;;;4937431;29;20024;-77
2023/07/19 06:09:43;;;;;;;7.75;2.25;;;;;;;;;;4919979;29;20500;-76
2023/07/19 06:12:10;;;;;;;5.70;2.05;;;;;;;;;;4936727;29;20028;-75
2023/07/19 06:14:36;;;;;;;9.95;2.08;;;;;;;;;;4904416;29;20036;-75
2023/07/19 06:17:01;;;;;;;8.65;1.95;;;;;;;;;;4937212;29;20042;-77
2023/07/19 06:19:27;;;;;;;9.48;2.50;;;;;;;;;;4920069;29;20024;-76
2023/07/19 06:21:52;;;;;;;11.20;2.35;;;;;;;;;;4937458;29;20527;-75
2023/07/19 06:24:18;;;;;;;9.82;1.92;;;;;;;;;;4921117;29;20484;-76
2023/07/19 06:26:44;;;;;;;8.70;2.00;;;;;;;;;;4938587;29;20444;-76
2023/07/19 06:29:09;;;;;;;14.20;2.22;;;;;;;;;;4906847;29;20046;-76
2023/07/19 06:31:35;;;;;;;8.45;2.35;;;;;;;;;;4939435;29;20109;-75
2023/07/19 06:34:00;;;;;;;5.63;2.47;;;;;;;;;;4911127;29;20127;-76
2023/07/19 06:36:26;;;;;;;5.00;2.10;;;;;;;;;;4943862;29;20059;-75
2023/07/19 06:38:52;;;;;;;5.85;1.92;;;;;;;;;;4924946;29;20028;-76
2023/07/19 06:41:18;;;;;;;9.27;1.95;;;;;;;;;;4942240;29;20032;-76
2023/07/19 06:43:43;;;;;;;6.72;2.22;;;;;;;;;;4937406;29;20043;-76
2023/07/19 06:46:09;;;;;;;12.45;2.42;;;;;;;;;;4919667;29;20028;-76
2023/07/19 06:48:34;;;;;;;7.55;1.73;;;;;;;;;;4936261;29;20024;-76
2023/07/19 06:51:00;;;;;;;6.70;2.10;;;;;;;;;;4918447;29;20062;-77
2023/07/19 06:53:25;;;;;;;7.20;2.03;;;;;;;;;;4903243;29;20035;-76
2023/07/19 06:55:53;;;;;;;11.57;2.50;;;;;;;;;;4918056;29;20118;-76
2023/07/19 06:58:19;;;;;;;5.60;1.90;;;;;;;;;;4918896;29;20468;-76
2023/07/19 07:00:44;;;;;;;9.15;1.90;;;;;;;;;;4935789;29;20066;-77
2023/07/19 07:03:10;;;;;;;9.18;1.88;;;;;;;;;;4936195;29;20388;-76
2023/07/19 07:05:35;;;;;;;10.73;2.22;;;;;;;;;;4902987;29;20039;-77
2023/07/19 07:08:01;;;;;;;5.13;2.00;;;;;;;;;;4935871;29;20087;-76
2023/07/19 07:10:27;;;;;;;5.88;2.13;;;;;;;;;;4918502;29;20035;-76
2023/07/19 07:12:52;;;;;;;10.48;2.33;;;;;;;;;;4918953;29;20035;-76
2023/07/19 07:15:18;;;;;;;10.10;1.60;;;;;;;;;;4918653;29;20492;-77
2023/07/19 07:17:45;;;;;;;10.02;2.50;;;;;;;;;;4935575;29;20114;-76
2023/07/19 07:20:10;;;;;;;11.18;2.05;;;;;;;;;;4935181;29;20024;-75
2023/07/19 07:22:36;;;;;;;5.60;1.75;;;;;;;;;;4935537;29;20038;-77
2023/07/19 07:25:02;;;;;;;4.95;1.98;;;;;;;;;;4903102;29;20032;-77
2023/07/19 07:27:30;;;;;;;9.18;2.00;;;;;;;;;;4918794;29;20066;-76
2023/07/19 07:29:57;;;;;;;8.45;1.75;;;;;;;;;;4903085;29;20131;-76
2023/07/19 07:32:22;;;;;;;7.90;2.33;;;;;;;;;;4903011;29;20032;-76
2023/07/19 07:34:48;;;;;;;7.70;1.90;;;;;;;;;;4935828;29;20504;-76
2023/07/19 07:37:13;;;;;;;6.57;2.47;;;;;;;;;;4935176;29;20514;-77
2023/07/19 07:39:39;;;;;;;4.03;1.70;;;;;;;;;;4935422;29;20222;-75
2023/07/19 07:42:05;;;;;;;9.77;1.92;;;;;;;;;;4935753;29;20028;-76
2023/07/19 07:44:31;;;;;;;8.25;2.42;;;;;;;;;;4918531;29;20043;-78
2023/07/19 07:46:56;;;;;;;5.32;1.98;;;;;;;;;;4918178;29;20117;-76
2023/07/19 07:49:22;;;;;;;8.52;2.05;;;;;;;;;;4902347;29;20373;-76
2023/07/19 07:51:47;;;;;;;10.77;2.20;;;;;;;;;;4917914;29;20027;-76
2023/07/19 07:54:13;;;;;;;8.90;2.13;;;;;;;;;;4918106;29;20115;-76
2023/07/19 07:56:38;;;;;;;7.97;2.05;;;;;;;;;;4934890;29;20038;-75
2023/07/19 07:59:04;;;;;;;8.10;2.10;;;;;;;;;;4935183;29;20472;-76
2023/07/19 08:01:30;;;;;;;9.45;2.15;;;;;;;;;;4917944;29;20041;-75
2023/07/19 08:03:55;;;;;;;9.75;1.90;;;;;;;;;;4902460;29;20028;-76
2023/07/19 08:06:21;;;;;;;8.68;2.00;;;;;;;;;;4917795;29;20484;-76
2023/07/19 08:08:46;;;;;;;8.15;1.83;;;;;;;;;;4917852;29;20027;-76
2023/07/19 08:11:12;;;;;;;13.55;2.03;;;;;;;;;;4902099;29;20059;-75
2023/07/19 08:13:38;;;;;;;9.68;1.95;;;;;;;;;;4918081;29;20038;-74
2023/07/19 08:16:07;;;;;;;11.50;1.83;;;;;;;;;;4935216;29;20079;-76
2023/07/19 08:18:36;;;;;;;6.85;2.17;;;;;;;;;;4902425;29;20110;-76
2023/07/19 08:21:02;;;;;;;;;;;;;;;;;;4917809;29;20043;-74
2023/07/19 08:23:28;;;;;;;8.80;2.45;;;;;;;;;;4935063;29;20390;-75
2023/07/19 08:25:57;;;;;;;11.27;2.30;;;;;;;;;;4901943;29;20035;-77
2023/07/19 08:28:24;;;;;;;9.10;2.40;;;;;;;;;;4902254;29;20492;-75
2023/07/19 08:30:50;;;;;;;9.55;2.00;;;;;;;;;;4917359;29;20568;-76
2023/07/19 08:33:16;;;;;;;5.38;2.05;;;;;;;;;;4917535;29;20051;-76
2023/07/19 08:35:42;;;;;;;8.35;2.30;;;;;;;;;;4902116;29;20082;-77
2023/07/19 08:38:07;;;;;;;6.63;2.05;;;;;;;;;;4917766;29;20039;-76
2023/07/19 08:40:37;;;;;;;6.35;2.05;;;;;;;;;;4917827;29;20046;-76
2023/07/19 08:43:04;;;;;;;8.00;1.95;;;;;;;;;;4934568;29;20030;-76
2023/07/19 08:45:30;;;;;;;6.40;1.80;;;;;;;;;;4934731;29;20032;-75
2023/07/19 08:47:56;;;;;;;4.35;1.80;;;;;;;;;;4902348;29;20079;-76
2023/07/19 08:50:22;;;;;;;9.32;2.58;;;;;;;;;;4934632;29;20100;-77
2023/07/19 08:52:48;;;;;;;6.60;1.80;;;;;;;;;;4917892;29;20039;-77
2023/07/19 08:55:14;;;;;;;4.70;1.75;;;;;;;;;;4935196;29;20028;-75
2023/07/19 08:57:42;;;;;;;9.27;1.80;;;;;;;;;;4935188;29;20057;-78
2023/07/19 09:00:08;;;;;;;7.97;2.00;;;;;;;;;;4938454;29;20023;-76
2023/07/19 09:02:34;;;;;;;8.48;2.20;;;;;;;;;;4938949;29;20047;-76
2023/07/19 09:05:06;;;;;;;8.38;1.77;;;;;;;;;;4933416;29;20039;-75
2023/07/19 09:07:33;;;;;;;7.03;1.85;;;;;;;;;;4935975;29;20064;-75
2023/07/19 09:09:58;;;;;;;5.82;1.80;;;;;;;;;;4954856;28;20051;-76
2023/07/19 09:12:25;;;;;;;4.75;1.90;;;;;;;;;;4934806;29;20028;-76
2023/07/19 09:14:50;;;;;;;4.22;1.90;;;;;;;;;;4937048;29;20207;-76
2023/07/19 09:17:16;;;;;;;4.13;2.00;;;;;;;;;;4945543;29;20060;-76
2023/07/19 09:19:46;;;;;;;8.95;2.20;;;;;;;;;;4919772;29;20457;-75
2023/07/19 09:22:14;;;;;;;6.95;1.90;;;;;;;;;;4920721;29;20028;-76
2023/07/19 09:24:52;;;;;;;7.07;1.90;;;;;;;;;;4920652;29;20131;-77
2023/07/19 09:27:22;;;;;;;5.53;1.98;;;;;;;;;;4920979;29;20036;-76
2023/07/19 09:29:50;;;;;;;5.97;2.05;;;;;;;;;;4937378;23;20043;-82
2023/07/19 09:32:16;;;;;;;14.90;2.30;;;;;;;;;;4926884;29;20035;-82
2023/07/19 09:34:42;;;;;;;4.90;1.65;;;;;;;;;;4960372;29;20027;-82
2023/07/19 09:37:07;;;;;;;9.85;2.00;;;;;;;;;;4942544;29;20406;-82
2023/07/19 09:39:36;;;;;;;6.90;1.70;;;;;;;;;;4908551;29;20043;-82
2023/07/19 09:42:03;;;;;;;8.52;1.85;;;;;;;;;;4938464;29;20027;-82
